createdAt,value
2022-08-09T00:04:06.065Z,70.6
2022-08-09T00:09:02.584Z,70.8
2022-08-09T00:14:06.010Z,71.4
2022-08-09T00:19:10.649Z,71.8
2022-08-09T00:24:15.080Z,72.2
2022-08-09T00:29:39.273Z,73.7
2022-08-09T00:34:23.147Z,74.6
2022-08-09T00:40:13.263Z,75.9
2022-08-09T00:44:32.356Z,78.7
2022-08-09T00:49:36.916Z,79.6
2022-08-09T00:54:40.290Z,80.1
2022-08-09T00:59:46.265Z,78.4
2022-08-09T01:04:48.352Z,76.6
2022-08-09T01:09:52.908Z,76.2
2022-08-09T01:14:57.443Z,75.8
2022-08-09T01:20:02.731Z,76.2
2022-08-09T01:25:05.494Z,77.4
2022-08-09T01:30:28.799Z,77.6
2022-08-09T01:35:28.444Z,78
2022-08-09T01:40:23.005Z,77.7
2022-08-09T01:45:22.639Z,77.9
2022-08-09T01:50:30.060Z,78.1
2022-08-09T01:55:30.713Z,78.5
2022-08-09T02:00:36.256Z,79.3
2022-08-09T02:06:04.167Z,79.6
2022-08-09T02:10:51.023Z,79.8
2022-08-09T02:15:49.679Z,79.5
2022-08-09T02:20:52.440Z,79.7
2022-08-09T02:25:56.998Z,81.6
2022-08-09T02:31:00.491Z,81.4
2022-08-09T02:36:05.048Z,81.9
2022-08-09T02:41:09.595Z,81.7
2022-08-09T02:46:13.133Z,82
2022-08-09T02:51:17.666Z,81.6
2022-08-09T02:56:22.179Z,80.7
2022-08-09T03:01:29.593Z,80.9
2022-08-09T03:06:30.282Z,81.1
2022-08-09T03:12:05.471Z,82.1
2022-08-09T03:16:41.811Z,82.1
2022-08-09T03:21:41.911Z,82.7
2022-08-09T03:26:47.193Z,84.2
2022-08-09T03:32:00.362Z,85.2
2022-08-09T03:36:58.174Z,85.4
2022-08-09T03:42:06.102Z,85.6
2022-08-09T03:47:03.602Z,85.3
2022-08-09T03:52:08.134Z,85.2
2022-08-09T03:57:18.614Z,85
2022-08-09T04:02:19.859Z,85.2
2022-08-09T04:07:20.740Z,85.9
2022-08-09T04:12:30.996Z,85.8
2022-08-09T04:17:29.529Z,85.9
2022-08-09T04:22:33.571Z,86.6
2022-08-09T04:27:37.905Z,88.3
2022-08-09T04:32:45.857Z,88
2022-08-09T04:37:46.823Z,86.5
2022-08-09T04:42:50.503Z,85
2022-08-09T04:48:00.893Z,83.2
2022-08-09T04:52:58.613Z,82
2022-08-09T04:58:09.269Z,81.8
2022-08-09T05:03:24.138Z,80
2022-08-09T05:08:13.952Z,80.4
2022-08-09T05:13:15.721Z,80.7
2022-08-09T05:18:42.487Z,80.5
2022-08-09T05:23:55.468Z,80.8
2022-08-09T05:28:28.357Z,80
2022-08-09T05:33:33.057Z,79.7
2022-08-09T05:38:39.108Z,78.3
2022-08-09T05:43:45.205Z,75.7
2022-08-09T05:48:45.484Z,73.7
2022-08-09T05:53:56.846Z,70.5
2022-08-09T05:58:57.852Z,70.4
2022-08-09T06:03:58.888Z,69.3
2022-08-09T06:09:01.662Z,70
2022-08-09T06:14:06.208Z,70.2
2022-08-09T06:19:10.728Z,67.8
2022-08-09T06:24:14.273Z,68
2022-08-09T06:29:18.828Z,64.7
2022-08-09T06:34:23.674Z,64.4
2022-08-09T06:39:38.708Z,63.6
2022-08-09T06:44:31.440Z,65.9
2022-08-09T06:50:11.556Z,70
2022-08-09T06:54:41.416Z,68.6
2022-08-09T07:00:49.824Z,62.1
2022-08-09T07:04:48.615Z,62.5
2022-08-09T07:10:11.531Z,60.5
2022-08-09T07:14:56.663Z,57.1
2022-08-09T07:20:01.195Z,58.7
2022-08-09T07:25:09.950Z,57.2
2022-08-09T07:30:09.291Z,55.9
2022-08-09T07:35:14.749Z,55.2
2022-08-09T07:40:18.720Z,55.7
2022-08-09T07:45:23.598Z,56
2022-08-09T07:50:33.035Z,56
2022-08-09T07:55:29.999Z,53
2022-08-09T08:00:36.298Z,62
2022-08-09T08:05:57.917Z,66.9
2022-08-09T08:11:03.431Z,65.6
2022-08-09T08:15:47.159Z,59.6
2022-08-09T08:20:51.718Z,59.7
2022-08-09T08:26:06.475Z,57.6
2022-08-09T08:31:02.461Z,58.2
2022-08-09T08:36:04.405Z,59.5
2022-08-09T08:41:08.877Z,55
2022-08-09T08:46:33.375Z,58.7
2022-08-09T08:51:18.214Z,55.4
2022-08-09T08:56:25.115Z,52.8
2022-08-09T09:01:44.800Z,50.2
2022-08-09T09:06:29.634Z,52.7
2022-08-09T09:11:34.142Z,52.8
2022-08-09T09:16:37.718Z,53.2
2022-08-09T09:21:43.246Z,52.6
2022-08-09T09:26:46.795Z,50.9
2022-08-09T09:32:06.978Z,52.6
2022-08-09T09:36:54.970Z,49
2022-08-09T09:41:59.409Z,47.8
2022-08-09T09:47:03.920Z,46.6
2022-08-09T09:52:07.595Z,46.6
2022-08-09T09:58:04.373Z,44.7
2022-08-09T10:02:16.657Z,44.7
2022-08-09T10:07:20.135Z,43.1
2022-08-09T10:12:43.641Z,45.1
2022-08-09T10:17:55.180Z,43.4
2022-08-09T10:22:33.714Z,43.3
2022-08-09T10:27:38.698Z,43
2022-08-09T10:32:48.534Z,44.6
2022-08-09T10:37:45.401Z,41.7
2022-08-09T10:42:52.890Z,43.2
2022-08-09T10:48:13.131Z,41.7
2022-08-09T10:53:00.145Z,41.8
2022-08-09T10:58:02.587Z,39.9
2022-08-09T11:03:18.788Z,40.6
2022-08-09T11:08:11.646Z,39.3
2022-08-09T11:13:49.522Z,38.5
2022-08-09T11:18:19.755Z,39.2
2022-08-09T11:23:30.110Z,38.9
2022-08-09T11:28:34.010Z,38.1
2022-08-09T11:33:32.426Z,38
2022-08-09T11:38:41.531Z,38.9
2022-08-09T11:43:40.466Z,38
2022-08-09T11:48:45.017Z,38.4
2022-08-09T11:54:01.416Z,36.1
2022-08-09T11:58:53.106Z,38.8
2022-08-09T12:03:58.363Z,37.9
2022-08-09T12:09:01.452Z,38
2022-08-09T12:14:07.308Z,38.8
2022-08-09T12:19:11.502Z,38.1
2022-08-09T12:24:13.868Z,36.8
2022-08-09T12:29:29.700Z,37.9
2022-08-09T12:34:22.996Z,36.2
2022-08-09T12:39:27.640Z,36.8
2022-08-09T12:44:37.465Z,37.2
2022-08-09T12:49:35.574Z,35.8
2022-08-09T12:54:40.120Z,36.3
2022-08-09T13:00:02.807Z,37.1
2022-08-09T13:04:48.207Z,38.2
2022-08-09T13:09:55.402Z,38.5
2022-08-09T13:14:56.329Z,37.5
2022-08-09T13:20:09.378Z,37.5
2022-08-09T13:25:05.445Z,38.9
2022-08-09T13:30:48.859Z,38.4
2022-08-09T13:35:13.501Z,38.1
2022-08-09T13:41:51.142Z,38.9
2022-08-09T13:45:32.365Z,38.3
2022-08-09T13:50:30.445Z,39
2022-08-09T13:55:30.707Z,39.9
2022-08-09T14:00:42.770Z,39.1
2022-08-09T14:05:57.279Z,39.6
2022-08-09T14:10:49.363Z,39.6
2022-08-09T14:16:09.104Z,39.3
2022-08-09T14:20:51.410Z,38.6
2022-08-09T14:26:00.984Z,38.4
2022-08-09T14:31:00.491Z,38.9
2022-08-09T14:36:04.023Z,39.5
2022-08-09T14:41:39.507Z,39.2
2022-08-09T14:46:54.999Z,39.7
2022-08-09T14:51:17.685Z,39
2022-08-09T14:56:21.700Z,40
2022-08-09T15:01:25.774Z,39
2022-08-09T15:06:30.273Z,39.5
2022-08-09T15:11:33.830Z,40.4
2022-08-09T15:16:38.368Z,40.2
2022-08-09T15:21:58.348Z,39.4
2022-08-09T15:26:46.816Z,40.8
2022-08-09T15:31:51.013Z,40.9
2022-08-09T15:36:55.576Z,40.9
2022-08-09T15:41:59.325Z,40.6
2022-08-09T15:47:03.702Z,41.7
2022-08-09T15:52:08.163Z,42.2
2022-08-09T15:57:12.752Z,42.5
2022-08-09T16:02:16.255Z,42.7
2022-08-09T16:07:19.810Z,43.1
2022-08-09T16:12:26.304Z,42.9
2022-08-09T16:17:29.178Z,43.4
2022-08-09T16:22:32.650Z,43.7
2022-08-09T16:27:36.988Z,44.5
2022-08-09T16:32:49.277Z,44.1
2022-08-09T16:37:53.129Z,44.6
2022-08-09T16:42:49.632Z,43.7
2022-08-09T16:48:38.471Z,44.6
2022-08-09T16:52:58.711Z,45.4
2022-08-09T16:58:10.033Z,45.8
2022-08-09T17:03:06.801Z,46.1
2022-08-09T17:08:46.289Z,46
2022-08-09T17:13:14.873Z,45.4
2022-08-09T17:18:26.767Z,45.8
2022-08-09T17:24:20.934Z,46.3
2022-08-09T17:28:27.510Z,46
2022-08-09T17:33:36.054Z,46.8
2022-08-09T17:38:39.451Z,46.3
2022-08-09T17:43:42.829Z,47.1
2022-08-09T17:48:51.870Z,47.5
2022-08-09T17:53:53.470Z,48
2022-08-09T17:58:53.739Z,49
2022-08-09T18:03:57.265Z,49.2
2022-08-09T18:09:01.802Z,49
2022-08-09T18:14:13.204Z,49.8
2022-08-09T18:20:54.060Z,49.9
2022-08-09T18:24:15.249Z,50.5
2022-08-09T18:30:38.594Z,50.8
2022-08-09T18:34:24.146Z,50.9
2022-08-09T18:39:32.664Z,52
2022-08-09T18:44:31.566Z,52.3
2022-08-09T18:49:43.075Z,52.3
2022-08-09T18:54:45.815Z,52.7
2022-08-09T18:59:48.740Z,53.2
2022-08-09T19:05:03.940Z,53.7
2022-08-09T19:10:14.743Z,53.9
2022-08-09T19:14:56.840Z,54.3
2022-08-09T19:20:02.177Z,54.5
2022-08-09T19:25:09.601Z,54.6
2022-08-09T19:30:22.199Z,55.1
2022-08-09T19:35:14.031Z,55
2022-08-09T19:40:19.577Z,55.4
2022-08-09T19:45:22.047Z,55.4
2022-08-09T19:50:50.749Z,55.5
2022-08-09T19:56:05.615Z,55.6
2022-08-09T20:00:34.699Z,55.9
2022-08-09T20:05:46.798Z,55.8
2022-08-09T20:10:43.841Z,55.9
2022-08-09T20:16:34.642Z,56.5
2022-08-09T20:20:51.272Z,56.8
2022-08-09T20:25:55.411Z,56.8
2022-08-09T20:30:59.909Z,57.1
2022-08-09T20:36:04.446Z,57.3
2022-08-09T20:41:08.196Z,57.7
2022-08-09T20:46:33.729Z,57.9
2022-08-09T20:51:19.525Z,58.1
2022-08-09T20:56:21.836Z,58.4
2022-08-09T21:01:32.868Z,58.8
2022-08-09T21:06:29.692Z,59.1
2022-08-09T21:16:38.024Z,60
2022-08-09T21:21:53.868Z,60
2022-08-09T21:26:45.842Z,60.4
2022-08-09T21:31:50.364Z,60.7
2022-08-09T21:36:55.735Z,60.6
2022-08-09T21:42:05.526Z,61
2022-08-09T21:47:02.992Z,60.9
2022-08-09T21:52:07.551Z,61.1
2022-08-09T21:57:37.489Z,61.2
2022-08-09T22:02:29.484Z,61.5
2022-08-09T22:07:35.280Z,61.8
2022-08-09T22:12:30.756Z,62.1
2022-08-09T22:17:32.139Z,62.3
2022-08-09T22:22:33.758Z,62.6
2022-08-09T22:27:37.282Z,63.1
2022-08-09T22:32:40.869Z,63.1
2022-08-09T22:37:45.376Z,63
2022-08-09T22:42:49.937Z,63.2
2022-08-09T22:48:18.635Z,63.3
2022-08-09T22:52:58.775Z,63.5
2022-08-09T22:58:04.818Z,63.9
2022-08-09T23:03:12.301Z,64.1
2022-08-09T23:08:29.133Z,64.7
2022-08-09T23:13:15.180Z,64.9
2022-08-09T23:18:19.737Z,65
2022-08-09T23:23:23.261Z,65
2022-08-09T23:28:27.790Z,65.5
2022-08-09T23:33:32.346Z,65.6
2022-08-09T23:38:48.102Z,66
2022-08-09T23:43:40.393Z,66.1
2022-08-09T23:48:44.925Z,66.3
2022-08-09T23:53:50.617Z,66.4
2022-08-09T23:58:53.052Z,66.6
